Archer, Wyoming
Current Conditions -  °F | °C
As of 8:53 PM on Friday 24 Oct 2014 (Local Time) from KCYS Reporting Station
Clear Clear  
Wind Chill: 13°   Ceiling: Unl
Heat Index: 13°   Visibility: 10mi
Dew Point: -2°   Wind: 13mph
Humidity: 34%   Direction: 250°WSW
Pressure: 30.23"   Gusts: NA
Location:  41.4091°N, 104.861°W
Report Text: KCYS 250253Z 25011KT 10SM CLR 13/M02 A3023 RMK AO2 SLP178 T01331022 51008 $
Loading
Personal Weather Stations






























Interactive Weather Map
Tropical Storm Tracking
New forecast layout! Learn more

10-Day Weather Forecast

Advertisements
Track Severe Weather on mobile